sensor_id;sensor_type;location;lat;lon;timestamp;pressure;altitude;pressure_sealevel;temperature;humidity
22651;BME280;11492;42.646;23.400;2022-10-24T00:02:02;95758.75;;;12.96;67.45
22651;BME280;11492;42.646;23.400;2022-10-24T00:04:27;95761.47;;;12.80;67.91
22651;BME280;11492;42.646;23.400;2022-10-24T00:06:53;95755.75;;;12.85;68.00
22651;BME280;11492;42.646;23.400;2022-10-24T00:09:18;95764.13;;;12.65;68.39
22651;BME280;11492;42.646;23.400;2022-10-24T00:11:43;95758.16;;;12.64;68.76
22651;BME280;11492;42.646;23.400;2022-10-24T00:14:09;95751.28;;;12.79;67.49
22651;BME280;11492;42.646;23.400;2022-10-24T00:16:34;95755.91;;;12.61;69.68
22651;BME280;11492;42.646;23.400;2022-10-24T00:19:00;95761.78;;;12.55;69.18
22651;BME280;11492;42.646;23.400;2022-10-24T00:21:26;95758.66;;;12.38;70.59
22651;BME280;11492;42.646;23.400;2022-10-24T00:23:51;95749.25;;;12.37;70.13
22651;BME280;11492;42.646;23.400;2022-10-24T00:26:17;95759.50;;;12.30;71.16
22651;BME280;11492;42.646;23.400;2022-10-24T00:28:42;95742.03;;;12.32;70.49
22651;BME280;11492;42.646;23.400;2022-10-24T00:31:12;95748.81;;;12.33;70.26
22651;BME280;11492;42.646;23.400;2022-10-24T00:33:37;95737.09;;;12.15;70.71
22651;BME280;11492;42.646;23.400;2022-10-24T00:36:03;95741.00;;;12.11;71.60
22651;BME280;11492;42.646;23.400;2022-10-24T00:38:29;95742.84;;;12.25;70.72
22651;BME280;11492;42.646;23.400;2022-10-24T00:40:54;95745.81;;;12.22;72.08
22651;BME280;11492;42.646;23.400;2022-10-24T00:43:23;95744.31;;;12.27;71.20
22651;BME280;11492;42.646;23.400;2022-10-24T00:45:55;95743.34;;;12.50;70.34
22651;BME280;11492;42.646;23.400;2022-10-24T00:48:33;95736.97;;;12.61;70.33
22651;BME280;11492;42.646;23.400;2022-10-24T00:51:03;95741.28;;;12.68;69.66
22651;BME280;11492;42.646;23.400;2022-10-24T00:53:32;95740.31;;;12.69;69.22
22651;BME280;11492;42.646;23.400;2022-10-24T00:56:01;95736.78;;;12.62;68.84
22651;BME280;11492;42.646;23.400;2022-10-24T00:58:30;95736.16;;;12.60;70.18
22651;BME280;11492;42.646;23.400;2022-10-24T01:00:56;95744.41;;;12.64;68.81
22651;BME280;11492;42.646;23.400;2022-10-24T01:03:22;95740.81;;;12.65;69.11
22651;BME280;11492;42.646;23.400;2022-10-24T01:19:53;95745.13;;;12.28;69.57
22651;BME280;11492;42.646;23.400;2022-10-24T01:25:29;95750.03;;;12.15;69.54
22651;BME280;11492;42.646;23.400;2022-10-24T01:28:03;95747.94;;;12.11;70.02
22651;BME280;11492;42.646;23.400;2022-10-24T01:30:56;95753.00;;;12.04;70.12
22651;BME280;11492;42.646;23.400;2022-10-24T01:33:30;95752.88;;;11.98;69.11
22651;BME280;11492;42.646;23.400;2022-10-24T01:36:03;95750.00;;;11.93;69.40
22651;BME280;11492;42.646;23.400;2022-10-24T01:38:33;95751.28;;;11.89;70.23
22651;BME280;11492;42.646;23.400;2022-10-24T01:41:05;95755.06;;;11.79;69.20
22651;BME280;11492;42.646;23.400;2022-10-24T01:43:36;95753.00;;;11.67;71.23
22651;BME280;11492;42.646;23.400;2022-10-24T01:46:07;95755.91;;;11.64;70.84
22651;BME280;11492;42.646;23.400;2022-10-24T01:48:40;95748.97;;;11.64;70.93
22651;BME280;11492;42.646;23.400;2022-10-24T01:51:10;95746.41;;;11.56;71.52
22651;BME280;11492;42.646;23.400;2022-10-24T01:53:37;95750.31;;;11.52;70.68
22651;BME280;11492;42.646;23.400;2022-10-24T01:56:04;95756.44;;;11.51;71.88
22651;BME280;11492;42.646;23.400;2022-10-24T01:58:29;95751.44;;;11.50;70.91
22651;BME280;11492;42.646;23.400;2022-10-24T02:00:59;95749.00;;;11.48;71.52
22651;BME280;11492;42.646;23.400;2022-10-24T02:03:34;95742.22;;;11.47;71.08
22651;BME280;11492;42.646;23.400;2022-10-24T02:06:06;95742.59;;;11.45;71.93
22651;BME280;11492;42.646;23.400;2022-10-24T02:08:39;95746.13;;;11.44;71.71
22651;BME280;11492;42.646;23.400;2022-10-24T02:11:08;95732.25;;;11.37;72.04
22651;BME280;11492;42.646;23.400;2022-10-24T02:13:54;95743.72;;;11.34;71.54
22651;BME280;11492;42.646;23.400;2022-10-24T02:16:21;95747.41;;;11.32;72.03
22651;BME280;11492;42.646;23.400;2022-10-24T02:18:50;95741.25;;;11.33;72.51
22651;BME280;11492;42.646;23.400;2022-10-24T02:21:18;95758.75;;;11.39;72.12
22651;BME280;11492;42.646;23.400;2022-10-24T02:29:17;95754.84;;;11.35;71.86
22651;BME280;11492;42.646;23.400;2022-10-24T02:31:47;95752.13;;;11.36;72.70
22651;BME280;11492;42.646;23.400;2022-10-24T02:34:16;95757.75;;;11.32;72.78
22651;BME280;11492;42.646;23.400;2022-10-24T02:36:45;95745.81;;;11.31;72.65
22651;BME280;11492;42.646;23.400;2022-10-24T02:39:12;95749.38;;;11.30;72.61
22651;BME280;11492;42.646;23.400;2022-10-24T02:41:40;95753.59;;;11.15;73.73
22651;BME280;11492;42.646;23.400;2022-10-24T02:44:08;95746.31;;;11.19;74.75
22651;BME280;11492;42.646;23.400;2022-10-24T02:46:36;95744.84;;;11.16;75.20
22651;BME280;11492;42.646;23.400;2022-10-24T02:49:02;95742.25;;;11.32;74.76
22651;BME280;11492;42.646;23.400;2022-10-24T02:51:31;95743.25;;;11.39;74.22
22651;BME280;11492;42.646;23.400;2022-10-24T02:53:59;95743.72;;;11.34;74.71
22651;BME280;11492;42.646;23.400;2022-10-24T02:56:25;95741.44;;;11.47;74.69
22651;BME280;11492;42.646;23.400;2022-10-24T02:58:51;95741.91;;;11.50;75.15
22651;BME280;11492;42.646;23.400;2022-10-24T03:01:17;95738.53;;;11.50;74.57
22651;BME280;11492;42.646;23.400;2022-10-24T03:03:42;95745.13;;;11.52;74.96
22651;BME280;11492;42.646;23.400;2022-10-24T03:06:08;95747.22;;;11.57;73.96
22651;BME280;11492;42.646;23.400;2022-10-24T03:08:33;95741.25;;;11.56;74.22
22651;BME280;11492;42.646;23.400;2022-10-24T03:10:59;95736.03;;;11.64;74.35
22651;BME280;11492;42.646;23.400;2022-10-24T03:13:24;95739.09;;;11.68;73.59
22651;BME280;11492;42.646;23.400;2022-10-24T03:15:50;95732.78;;;11.70;73.08
22651;BME280;11492;42.646;23.400;2022-10-24T03:18:15;95734.09;;;11.66;72.88
22651;BME280;11492;42.646;23.400;2022-10-24T03:20:40;95733.44;;;11.64;73.48
22651;BME280;11492;42.646;23.400;2022-10-24T03:23:06;95723.78;;;11.58;72.91
22651;BME280;11492;42.646;23.400;2022-10-24T03:25:32;95736.06;;;11.56;73.70
22651;BME280;11492;42.646;23.400;2022-10-24T03:27:57;95735.75;;;11.59;73.63
22651;BME280;11492;42.646;23.400;2022-10-24T03:30:23;95736.06;;;11.56;72.70
22651;BME280;11492;42.646;23.400;2022-10-24T03:32:48;95737.38;;;11.52;73.74
22651;BME280;11492;42.646;23.400;2022-10-24T03:35:14;95739.00;;;11.46;73.29
22651;BME280;11492;42.646;23.400;2022-10-24T03:37:40;95737.91;;;11.40;73.29
22651;BME280;11492;42.646;23.400;2022-10-24T03:40:07;95743.53;;;11.36;73.42
22651;BME280;11492;42.646;23.400;2022-10-24T03:42:32;95737.25;;;11.30;73.82
22651;BME280;11492;42.646;23.400;2022-10-24T03:44:58;95741.63;;;11.30;73.50
22651;BME280;11492;42.646;23.400;2022-10-24T03:47:23;95742.91;;;11.26;74.18
22651;BME280;11492;42.646;23.400;2022-10-24T03:49:48;95733.84;;;11.22;74.14
22651;BME280;11492;42.646;23.400;2022-10-24T03:52:14;95732.59;;;11.10;74.94
22651;BME280;11492;42.646;23.400;2022-10-24T03:54:39;95739.88;;;11.15;74.37
22651;BME280;11492;42.646;23.400;2022-10-24T03:57:05;95746.31;;;11.19;74.69
22651;BME280;11492;42.646;23.400;2022-10-24T03:59:30;95735.50;;;11.15;74.87
22651;BME280;11492;42.646;23.400;2022-10-24T04:01:56;95740.97;;;11.12;74.46
22651;BME280;11492;42.646;23.400;2022-10-24T04:04:23;95732.91;;;11.07;75.25
22651;BME280;11492;42.646;23.400;2022-10-24T04:06:49;95734.22;;;11.11;74.80
22651;BME280;11492;42.646;23.400;2022-10-24T04:09:14;95732.59;;;11.10;75.06
22651;BME280;11492;42.646;23.400;2022-10-24T04:11:40;95737.44;;;11.13;74.19
22651;BME280;11492;42.646;23.400;2022-10-24T04:14:05;95717.94;;;11.03;74.53
22651;BME280;11492;42.646;23.400;2022-10-24T04:16:32;95719.72;;;11.02;74.60
22651;BME280;11492;42.646;23.400;2022-10-24T04:18:58;95715.66;;;11.00;74.44
22651;BME280;11492;42.646;23.400;2022-10-24T04:21:24;95714.53;;;10.95;74.74
22651;BME280;11492;42.646;23.400;2022-10-24T04:23:49;95729.38;;;11.00;74.50
22651;BME280;11492;42.646;23.400;2022-10-24T04:26:15;95732.75;;;11.01;74.58
22651;BME280;11492;42.646;23.400;2022-10-24T04:28:41;95726.16;;;10.98;74.61
22651;BME280;11492;42.646;23.400;2022-10-24T04:31:06;95734.56;;;10.93;74.14
22651;BME280;11492;42.646;23.400;2022-10-24T04:33:32;95726.81;;;10.93;74.57
22651;BME280;11492;42.646;23.400;2022-10-24T04:35:57;95729.09;;;10.88;74.50
22651;BME280;11492;42.646;23.400;2022-10-24T04:38:23;95737.28;;;10.91;74.43
22651;BME280;11492;42.646;23.400;2022-10-24T04:40:50;95737.28;;;10.91;74.85
22651;BME280;11492;42.646;23.400;2022-10-24T04:43:17;95740.84;;;10.90;75.26
22651;BME280;11492;42.646;23.400;2022-10-24T04:45:42;95742.00;;;10.88;75.62
22651;BME280;11492;42.646;23.400;2022-10-24T04:48:08;95737.50;;;10.82;75.49
22651;BME280;11492;42.646;23.400;2022-10-24T04:50:34;95737.47;;;10.74;76.66
22651;BME280;11492;42.646;23.400;2022-10-24T04:52:59;95744.56;;;10.80;76.80
22651;BME280;11492;42.646;23.400;2022-10-24T04:55:26;95748.78;;;10.89;76.08
22651;BME280;11492;42.646;23.400;2022-10-24T04:57:52;95750.88;;;10.93;76.82
22651;BME280;11492;42.646;23.400;2022-10-24T05:00:17;95752.63;;;11.00;75.98
22651;BME280;11492;42.646;23.400;2022-10-24T05:02:42;95760.41;;;11.08;75.63
22651;BME280;11492;42.646;23.400;2022-10-24T05:05:08;95763.28;;;11.13;76.03
22651;BME280;11492;42.646;23.400;2022-10-24T05:07:33;95753.59;;;11.15;75.03
22651;BME280;11492;42.646;23.400;2022-10-24T05:09:59;95755.50;;;11.21;75.26
22651;BME280;11492;42.646;23.400;2022-10-24T05:12:24;95754.41;;;11.23;74.82
22651;BME280;11492;42.646;23.400;2022-10-24T05:14:50;95758.75;;;11.23;75.36
22651;BME280;11492;42.646;23.400;2022-10-24T05:17:15;95758.72;;;11.31;74.78
22651;BME280;11492;42.646;23.400;2022-10-24T05:19:41;95762.16;;;11.23;75.64
22651;BME280;11492;42.646;23.400;2022-10-24T05:22:06;95754.38;;;11.31;75.29
22651;BME280;11492;42.646;23.400;2022-10-24T05:24:31;95760.38;;;11.40;74.96
22651;BME280;11492;42.646;23.400;2022-10-24T05:26:57;95762.59;;;11.43;74.43
22651;BME280;11492;42.646;23.400;2022-10-24T05:29:22;95763.25;;;11.45;74.04
22651;BME280;11492;42.646;23.400;2022-10-24T05:31:48;95753.25;;;11.42;73.82
22651;BME280;11492;42.646;23.400;2022-10-24T05:34:13;95769.25;;;11.45;74.45
22651;BME280;11492;42.646;23.400;2022-10-24T05:36:38;95756.81;;;11.41;74.60
22651;BME280;11492;42.646;23.400;2022-10-24T05:39:04;95760.81;;;11.43;74.26
22651;BME280;11492;42.646;23.400;2022-10-24T05:41:29;95763.25;;;11.45;74.19
22651;BME280;11492;42.646;23.400;2022-10-24T05:43:55;95762.28;;;11.46;74.26
22651;BME280;11492;42.646;23.400;2022-10-24T05:46:20;95755.50;;;11.45;74.97
22651;BME280;11492;42.646;23.400;2022-10-24T05:48:46;95760.81;;;11.51;74.88
22651;BME280;11492;42.646;23.400;2022-10-24T05:51:11;95752.56;;;11.47;74.73
22651;BME280;11492;42.646;23.400;2022-10-24T05:53:37;95753.22;;;11.49;74.90
22651;BME280;11492;42.646;23.400;2022-10-24T05:56:03;95764.34;;;11.58;74.67
22651;BME280;11492;42.646;23.400;2022-10-24T05:58:30;95763.72;;;11.56;74.35
22651;BME280;11492;42.646;23.400;2022-10-24T06:00:55;95769.88;;;11.55;74.10
22651;BME280;11492;42.646;23.400;2022-10-24T06:03:21;95781.47;;;11.59;74.45
22651;BME280;11492;42.646;23.400;2022-10-24T06:05:47;95779.19;;;11.64;73.58
22651;BME280;11492;42.646;23.400;2022-10-24T06:08:13;95778.41;;;11.63;73.18
22651;BME280;11492;42.646;23.400;2022-10-24T06:10:38;95777.72;;;11.69;73.03
22651;BME280;11492;42.646;23.400;2022-10-24T06:13:03;95791.31;;;11.71;72.40
22651;BME280;11492;42.646;23.400;2022-10-24T06:15:29;95796.81;;;11.76;72.59
22651;BME280;11492;42.646;23.400;2022-10-24T06:17:54;95792.25;;;11.78;71.99
22651;BME280;11492;42.646;23.400;2022-10-24T06:20:20;95776.41;;;11.81;71.76
22651;BME280;11492;42.646;23.400;2022-10-24T06:22:48;95788.81;;;11.93;72.60
22651;BME280;11492;42.646;23.400;2022-10-24T06:25:13;95780.56;;;11.90;71.74
22651;BME280;11492;42.646;23.400;2022-10-24T06:27:39;95785.38;;;12.00;71.35
22651;BME280;11492;42.646;23.400;2022-10-24T06:30:05;95782.94;;;12.07;71.83
22651;BME280;11492;42.646;23.400;2022-10-24T06:32:31;95789.53;;;12.17;70.68
22651;BME280;11492;42.646;23.400;2022-10-24T06:34:57;95792.41;;;12.22;71.21
22651;BME280;11492;42.646;23.400;2022-10-24T06:37:22;95800.13;;;12.30;70.34
22651;BME280;11492;42.646;23.400;2022-10-24T06:39:47;95796.34;;;12.40;70.00
22651;BME280;11492;42.646;23.400;2022-10-24T06:42:13;95800.50;;;12.49;70.30
22651;BME280;11492;42.646;23.400;2022-10-24T06:44:38;95788.28;;;12.57;70.02
22651;BME280;11492;42.646;23.400;2022-10-24T06:47:04;95795.06;;;12.66;69.47
22651;BME280;11492;42.646;23.400;2022-10-24T06:49:30;95796.66;;;12.75;69.93
22651;BME280;11492;42.646;23.400;2022-10-24T06:51:56;95806.09;;;12.90;69.81
22651;BME280;11492;42.646;23.400;2022-10-24T06:54:22;95803.09;;;13.01;69.25
22651;BME280;11492;42.646;23.400;2022-10-24T06:56:48;95802.69;;;13.12;70.04
22651;BME280;11492;42.646;23.400;2022-10-24T06:59:15;95802.44;;;13.21;68.62
22651;BME280;11492;42.646;23.400;2022-10-24T07:01:42;95802.81;;;13.32;68.97
22651;BME280;11492;42.646;23.400;2022-10-24T07:04:08;95805.47;;;13.46;67.98
22651;BME280;11492;42.646;23.400;2022-10-24T07:06:33;95807.81;;;13.56;67.77
22651;BME280;11492;42.646;23.400;2022-10-24T07:09:00;95803.78;;;13.68;68.15
22651;BME280;11492;42.646;23.400;2022-10-24T07:11:27;95796.53;;;13.77;67.62
22651;BME280;11492;42.646;23.400;2022-10-24T07:13:52;95800.00;;;13.92;66.42
22651;BME280;11492;42.646;23.400;2022-10-24T07:16:18;95801.56;;;14.07;65.92
22651;BME280;11492;42.646;23.400;2022-10-24T07:18:44;95806.34;;;14.18;66.43
22651;BME280;11492;42.646;23.400;2022-10-24T07:21:13;95800.66;;;14.29;65.96
22651;BME280;11492;42.646;23.400;2022-10-24T07:23:42;95799.47;;;14.46;64.93
22651;BME280;11492;42.646;23.400;2022-10-24T07:26:13;95778.28;;;14.48;64.49
22651;BME280;11492;42.646;23.400;2022-10-24T07:28:45;95790.16;;;14.71;63.90
22651;BME280;11492;42.646;23.400;2022-10-24T07:31:38;95796.72;;;14.88;63.71
22651;BME280;11492;42.646;23.400;2022-10-24T07:34:07;95758.41;;;14.76;63.33
22651;BME280;11492;42.646;23.400;2022-10-24T07:36:36;95759.88;;;14.85;62.69
22651;BME280;11492;42.646;23.400;2022-10-24T07:39:05;95795.66;;;15.18;62.25
22651;BME280;11492;42.646;23.400;2022-10-24T07:41:32;95766.84;;;15.19;61.53
22651;BME280;11492;42.646;23.400;2022-10-24T07:44:01;95777.47;;;15.45;61.75
22651;BME280;11492;42.646;23.400;2022-10-24T07:46:27;95783.19;;;15.61;61.21
22651;BME280;11492;42.646;23.400;2022-10-24T07:48:53;95801.16;;;15.83;60.88
22651;BME280;11492;42.646;23.400;2022-10-24T07:51:20;95782.34;;;15.87;59.93
22651;BME280;11492;42.646;23.400;2022-10-24T07:53:46;95800.97;;;16.11;60.05
22651;BME280;11492;42.646;23.400;2022-10-24T07:56:15;95795.81;;;16.24;59.22
22651;BME280;11492;42.646;23.400;2022-10-24T07:58:42;95789.72;;;16.50;59.26
22651;BME280;11492;42.646;23.400;2022-10-24T08:01:17;95784.13;;;17.50;56.16
22651;BME280;11492;42.646;23.400;2022-10-24T08:03:43;95791.13;;;19.37;51.43
22651;BME280;11492;42.646;23.400;2022-10-24T08:06:21;95772.19;;;21.58;45.58
22651;BME280;11492;42.646;23.400;2022-10-24T08:08:47;95773.88;;;22.88;42.69
22651;BME280;11492;42.646;23.400;2022-10-24T08:11:21;95778.28;;;23.86;40.21
22651;BME280;11492;42.646;23.400;2022-10-24T08:13:49;95767.31;;;24.84;38.10
22651;BME280;11492;42.646;23.400;2022-10-24T08:16:16;95771.69;;;25.73;36.18
22651;BME280;11492;42.646;23.400;2022-10-24T08:18:42;95770.94;;;26.54;35.13
22651;BME280;11492;42.646;23.400;2022-10-24T08:21:11;95768.94;;;27.36;33.77
22651;BME280;11492;42.646;23.400;2022-10-24T08:23:38;95766.59;;;28.32;32.91
22651;BME280;11492;42.646;23.400;2022-10-24T08:26:05;95771.19;;;29.09;31.46
22651;BME280;11492;42.646;23.400;2022-10-24T08:28:31;95759.13;;;29.21;30.81
22651;BME280;11492;42.646;23.400;2022-10-24T08:30:59;95764.88;;;29.43;30.56
22651;BME280;11492;42.646;23.400;2022-10-24T08:33:25;95758.41;;;29.58;30.32
22651;BME280;11492;42.646;23.400;2022-10-24T08:35:53;95762.13;;;29.95;29.56
22651;BME280;11492;42.646;23.400;2022-10-24T08:38:21;95759.63;;;30.36;29.10
22651;BME280;11492;42.646;23.400;2022-10-24T08:40:47;95759.72;;;30.55;28.70
22651;BME280;11492;42.646;23.400;2022-10-24T08:43:13;95750.56;;;30.05;29.08
22651;BME280;11492;42.646;23.400;2022-10-24T08:46:04;95756.28;;;29.93;28.86
22651;BME280;11492;42.646;23.400;2022-10-24T08:48:42;95745.47;;;30.13;29.48
22651;BME280;11492;42.646;23.400;2022-10-24T08:53:50;95744.56;;;30.22;28.85
22651;BME280;11492;42.646;23.400;2022-10-24T08:56:17;95735.28;;;30.20;28.30
22651;BME280;11492;42.646;23.400;2022-10-24T08:58:44;95734.03;;;30.12;28.18
22651;BME280;11492;42.646;23.400;2022-10-24T09:01:29;95730.34;;;30.04;28.50
22651;BME280;11492;42.646;23.400;2022-10-24T09:03:58;95729.00;;;29.73;28.91
22651;BME280;11492;42.646;23.400;2022-10-24T09:06:27;95734.47;;;29.54;29.30
22651;BME280;11492;42.646;23.400;2022-10-24T09:14:02;95723.28;;;30.45;28.13
22651;BME280;11492;42.646;23.400;2022-10-24T09:16:31;95722.38;;;30.55;28.16
22651;BME280;11492;42.646;23.400;2022-10-24T09:18:57;95717.00;;;30.04;28.22
22651;BME280;11492;42.646;23.400;2022-10-24T09:21:23;95723.41;;;30.03;28.85
22651;BME280;11492;42.646;23.400;2022-10-24T09:23:49;95727.22;;;30.25;28.91
22651;BME280;11492;42.646;23.400;2022-10-24T09:26:24;95713.94;;;30.20;28.49
22651;BME280;11492;42.646;23.400;2022-10-24T09:28:51;95721.00;;;30.34;28.58
22651;BME280;11492;42.646;23.400;2022-10-24T09:31:21;95713.56;;;30.54;28.33
22651;BME280;11492;42.646;23.400;2022-10-24T09:33:49;95711.56;;;30.41;28.30
22651;BME280;11492;42.646;23.400;2022-10-24T09:36:20;95713.03;;;30.80;27.98
22651;BME280;11492;42.646;23.400;2022-10-24T09:38:47;95712.31;;;31.34;27.13
22651;BME280;11492;42.646;23.400;2022-10-24T09:41:23;95712.38;;;31.47;27.35
22651;BME280;11492;42.646;23.400;2022-10-24T09:43:52;95711.59;;;31.83;26.93
22651;BME280;11492;42.646;23.400;2022-10-24T09:49:15;95706.97;;;31.34;26.70
22651;BME280;11492;42.646;23.400;2022-10-24T09:51:46;95704.75;;;31.00;27.63
22651;BME280;11492;42.646;23.400;2022-10-24T09:56:47;95707.91;;;31.25;27.37
22651;BME280;11492;42.646;23.400;2022-10-24T10:04:38;95694.63;;;32.77;26.03
22651;BME280;11492;42.646;23.400;2022-10-24T10:07:12;95693.38;;;33.22;25.92
22651;BME280;11492;42.646;23.400;2022-10-24T10:10:06;95685.44;;;33.65;24.81
22651;BME280;11492;42.646;23.400;2022-10-24T10:12:40;95691.47;;;33.92;24.15
22651;BME280;11492;42.646;23.400;2022-10-24T10:17:53;95680.59;;;33.19;24.76
22651;BME280;11492;42.646;23.400;2022-10-24T10:20:29;95674.56;;;33.49;25.00
22651;BME280;11492;42.646;23.400;2022-10-24T10:23:27;95684.88;;;33.55;25.07
22651;BME280;11492;42.646;23.400;2022-10-24T10:26:05;95669.13;;;33.40;25.05
22651;BME280;11492;42.646;23.400;2022-10-24T10:28:35;95667.16;;;33.67;24.66
22651;BME280;11492;42.646;23.400;2022-10-24T10:31:02;95663.94;;;34.30;24.18
22651;BME280;11492;42.646;23.400;2022-10-24T10:33:41;95655.16;;;34.85;23.94
22651;BME280;11492;42.646;23.400;2022-10-24T10:36:21;95665.81;;;35.06;22.97
22651;BME280;11492;42.646;23.400;2022-10-24T10:49:36;95648.06;;;36.22;22.47
22651;BME280;11492;42.646;23.400;2022-10-24T10:57:11;95628.31;;;36.92;22.21
22651;BME280;11492;42.646;23.400;2022-10-24T11:05:26;95624.97;;;37.15;21.53
22651;BME280;11492;42.646;23.400;2022-10-24T11:10:48;95614.47;;;37.21;21.72
22651;BME280;11492;42.646;23.400;2022-10-24T11:13:21;95614.38;;;38.02;21.05
22651;BME280;11492;42.646;23.400;2022-10-24T11:15:52;95607.63;;;38.51;21.00
22651;BME280;11492;42.646;23.400;2022-10-24T11:18:33;95619.00;;;39.16;20.24
22651;BME280;11492;42.646;23.400;2022-10-24T11:21:12;95610.63;;;39.44;19.65
22651;BME280;11492;42.646;23.400;2022-10-24T11:24:19;95606.97;;;39.52;19.56
22651;BME280;11492;42.646;23.400;2022-10-24T11:29:35;95602.28;;;39.64;19.25
22651;BME280;11492;42.646;23.400;2022-10-24T11:35:29;95590.75;;;40.06;19.14
22651;BME280;11492;42.646;23.400;2022-10-24T11:37:37;95580.28;;;40.20;19.19
22651;BME280;11492;42.646;23.400;2022-10-24T11:45:18;95571.41;;;41.70;18.60
22651;BME280;11492;42.646;23.400;2022-10-24T11:53:11;95564.34;;;42.47;18.21
22651;BME280;11492;42.646;23.400;2022-10-24T11:55:43;95566.72;;;42.07;18.04
22651;BME280;11492;42.646;23.400;2022-10-24T11:58:17;95554.38;;;41.91;17.33
22651;BME280;11492;42.646;23.400;2022-10-24T12:14:39;95533.88;;;42.60;17.25
22651;BME280;11492;42.646;23.400;2022-10-24T12:19:43;95540.75;;;42.76;17.39
22651;BME280;11492;42.646;23.400;2022-10-24T12:22:19;95537.19;;;42.28;17.60
22651;BME280;11492;42.646;23.400;2022-10-24T12:27:55;95533.63;;;41.43;17.81
22651;BME280;11492;42.646;23.400;2022-10-24T12:30:23;95524.06;;;40.96;17.94
22651;BME280;11492;42.646;23.400;2022-10-24T12:33:30;95520.53;;;40.96;18.37
22651;BME280;11492;42.646;23.400;2022-10-24T12:35:56;95521.00;;;40.98;18.29
22651;BME280;11492;42.646;23.400;2022-10-24T12:40:54;95516.53;;;41.05;18.53
22651;BME280;11492;42.646;23.400;2022-10-24T12:51:36;95516.69;;;41.90;17.85
22651;BME280;11492;42.646;23.400;2022-10-24T12:54:16;95510.59;;;41.96;18.22
22651;BME280;11492;42.646;23.400;2022-10-24T12:59:18;95508.81;;;42.03;18.02
22651;BME280;11492;42.646;23.400;2022-10-24T13:01:45;95501.97;;;41.91;18.36
22651;BME280;11492;42.646;23.400;2022-10-24T13:04:27;95508.66;;;41.56;18.59
22651;BME280;11492;42.646;23.400;2022-10-24T13:15:57;95498.28;;;36.66;22.57
22651;BME280;11492;42.646;23.400;2022-10-24T13:18:43;95494.84;;;35.47;23.53
22651;BME280;11492;42.646;23.400;2022-10-24T13:23:40;95495.97;;;33.61;25.14
22651;BME280;11492;42.646;23.400;2022-10-24T13:26:06;95496.59;;;32.72;25.67
22651;BME280;11492;42.646;23.400;2022-10-24T13:28:50;95485.19;;;31.92;27.26
22651;BME280;11492;42.646;23.400;2022-10-24T13:33:43;95493.47;;;30.52;28.03
22651;BME280;11492;42.646;23.400;2022-10-24T13:38:51;95483.91;;;29.68;30.03
22651;BME280;11492;42.646;23.400;2022-10-24T13:41:29;95490.16;;;29.31;31.27
22651;BME280;11492;42.646;23.400;2022-10-24T13:44:09;95481.34;;;29.03;31.66
22651;BME280;11492;42.646;23.400;2022-10-24T13:49:47;95491.44;;;28.30;33.57
22651;BME280;11492;42.646;23.400;2022-10-24T13:52:19;95485.75;;;28.04;33.72
22651;BME280;11492;42.646;23.400;2022-10-24T13:54:48;95482.94;;;27.85;35.04
22651;BME280;11492;42.646;23.400;2022-10-24T13:59:56;95484.34;;;27.58;35.44
22651;BME280;11492;42.646;23.400;2022-10-24T14:02:25;95472.41;;;27.41;35.29
22651;BME280;11492;42.646;23.400;2022-10-24T14:04:51;95473.53;;;27.30;36.16
22651;BME280;11492;42.646;23.400;2022-10-24T14:07:24;95467.69;;;27.14;33.71
22651;BME280;11492;42.646;23.400;2022-10-24T14:10:11;95471.16;;;26.95;33.83
22651;BME280;11492;42.646;23.400;2022-10-24T14:12:38;95471.16;;;26.80;34.01
22651;BME280;11492;42.646;23.400;2022-10-24T14:15:16;95476.19;;;26.62;34.48
22651;BME280;11492;42.646;23.400;2022-10-24T14:17:52;95463.19;;;26.36;34.53
22651;BME280;11492;42.646;23.400;2022-10-24T14:22:52;95470.56;;;26.04;36.22
22651;BME280;11492;42.646;23.400;2022-10-24T14:25:32;95478.16;;;25.86;35.94
22651;BME280;11492;42.646;23.400;2022-10-24T14:31:00;95464.59;;;25.68;35.80
22651;BME280;11492;42.646;23.400;2022-10-24T14:33:29;95468.22;;;25.48;36.37
22651;BME280;11492;42.646;23.400;2022-10-24T14:35:56;95470.25;;;25.36;37.47
22651;BME280;11492;42.646;23.400;2022-10-24T14:38:23;95474.09;;;25.19;39.71
22651;BME280;11492;42.646;23.400;2022-10-24T14:40:50;95466.88;;;25.00;40.20
22651;BME280;11492;42.646;23.400;2022-10-24T14:43:24;95460.53;;;24.70;40.04
22651;BME280;11492;42.646;23.400;2022-10-24T14:48:42;95461.31;;;24.34;41.71
22651;BME280;11492;42.646;23.400;2022-10-24T14:51:23;95459.03;;;24.17;40.99
22651;BME280;11492;42.646;23.400;2022-10-24T14:53:51;95464.97;;;24.07;41.55
22651;BME280;11492;42.646;23.400;2022-10-24T14:58:49;95462.63;;;23.85;42.45
22651;BME280;11492;42.646;23.400;2022-10-24T15:01:17;95455.84;;;23.68;43.18
22651;BME280;11492;42.646;23.400;2022-10-24T15:03:55;95459.09;;;23.53;43.66
22651;BME280;11492;42.646;23.400;2022-10-24T15:11:36;95447.38;;;23.07;44.49
22651;BME280;11492;42.646;23.400;2022-10-24T15:14:02;95449.84;;;22.93;45.05
22651;BME280;11492;42.646;23.400;2022-10-24T15:16:32;95453.84;;;22.79;44.90
22651;BME280;11492;42.646;23.400;2022-10-24T15:19:00;95449.13;;;22.65;45.22
22651;BME280;11492;42.646;23.400;2022-10-24T15:21:34;95460.28;;;22.39;45.21
22651;BME280;11492;42.646;23.400;2022-10-24T15:24:00;95459.75;;;22.37;44.21
22651;BME280;11492;42.646;23.400;2022-10-24T15:26:31;95456.41;;;22.25;44.88
22651;BME280;11492;42.646;23.400;2022-10-24T15:29:14;95452.16;;;22.24;44.94
22651;BME280;11492;42.646;23.400;2022-10-24T15:31:43;95457.91;;;22.22;45.11
22651;BME280;11492;42.646;23.400;2022-10-24T15:34:14;95458.34;;;22.02;45.86
22651;BME280;11492;42.646;23.400;2022-10-24T15:36:40;95457.09;;;21.94;46.26